sensor_id;sensor_type;location;lat;lon;timestamp;P1;durP1;ratioP1;P2;durP2;ratioP2
48871;SDS011;36154;51.674;7.824;2022-07-23T00:00:59;1.02;;;0.98;;
48871;SDS011;36154;51.674;7.824;2022-07-23T00:03:25;1.85;;;1.13;;
48871;SDS011;36154;51.674;7.824;2022-07-23T00:05:51;1.10;;;1.00;;
48871;SDS011;36154;51.674;7.824;2022-07-23T00:08:17;3.20;;;1.27;;
48871;SDS011;36154;51.674;7.824;2022-07-23T00:10:42;1.23;;;1.00;;
48871;SDS011;36154;51.674;7.824;2022-07-23T00:13:07;1.25;;;1.15;;
48871;SDS011;36154;51.674;7.824;2022-07-23T00:15:33;2.40;;;1.30;;
48871;SDS011;36154;51.674;7.824;2022-07-23T00:17:58;2.58;;;1.25;;
48871;SDS011;36154;51.674;7.824;2022-07-23T00:20:24;1.50;;;1.40;;
48871;SDS011;36154;51.674;7.824;2022-07-23T00:22:52;1.17;;;1.08;;
48871;SDS011;36154;51.674;7.824;2022-07-23T00:25:19;1.83;;;1.20;;
48871;SDS011;36154;51.674;7.824;2022-07-23T00:27:46;0.95;;;0.93;;
48871;SDS011;36154;51.674;7.824;2022-07-23T00:30:12;0.95;;;0.93;;
48871;SDS011;36154;51.674;7.824;2022-07-23T00:32:51;1.27;;;1.15;;
48871;SDS011;36154;51.674;7.824;2022-07-23T00:35:21;1.00;;;0.90;;
48871;SDS011;36154;51.674;7.824;2022-07-23T00:37:51;1.40;;;1.00;;
48871;SDS011;36154;51.674;7.824;2022-07-23T00:40:17;2.60;;;1.00;;
48871;SDS011;36154;51.674;7.824;2022-07-23T00:42:42;1.20;;;1.10;;
48871;SDS011;36154;51.674;7.824;2022-07-23T00:45:08;1.20;;;1.10;;
48871;SDS011;36154;51.674;7.824;2022-07-23T00:47:33;1.98;;;1.10;;
48871;SDS011;36154;51.674;7.824;2022-07-23T00:49:59;1.33;;;1.10;;
48871;SDS011;36154;51.674;7.824;2022-07-23T00:52:24;1.00;;;1.00;;
48871;SDS011;36154;51.674;7.824;2022-07-23T00:54:50;1.25;;;1.15;;
48871;SDS011;36154;51.674;7.824;2022-07-23T00:57:15;1.00;;;1.00;;
48871;SDS011;36154;51.674;7.824;2022-07-23T00:59:41;1.92;;;1.20;;
48871;SDS011;36154;51.674;7.824;2022-07-23T01:02:07;2.65;;;1.30;;
48871;SDS011;36154;51.674;7.824;2022-07-23T01:04:32;1.00;;;0.95;;
48871;SDS011;36154;51.674;7.824;2022-07-23T01:06:57;1.10;;;1.00;;
48871;SDS011;36154;51.674;7.824;2022-07-23T01:09:23;1.48;;;1.10;;
48871;SDS011;36154;51.674;7.824;2022-07-23T01:11:48;1.00;;;0.90;;
48871;SDS011;36154;51.674;7.824;2022-07-23T01:14:15;1.27;;;1.20;;
48871;SDS011;36154;51.674;7.824;2022-07-23T01:16:43;2.67;;;1.15;;
48871;SDS011;36154;51.674;7.824;2022-07-23T01:19:09;1.13;;;1.02;;
48871;SDS011;36154;51.674;7.824;2022-07-23T01:21:36;1.08;;;1.02;;
48871;SDS011;36154;51.674;7.824;2022-07-23T01:24:03;2.22;;;1.10;;
48871;SDS011;36154;51.674;7.824;2022-07-23T01:26:29;0.98;;;0.95;;
48871;SDS011;36154;51.674;7.824;2022-07-23T01:28:54;1.10;;;1.00;;
48871;SDS011;36154;51.674;7.824;2022-07-23T01:31:20;1.20;;;1.10;;
48871;SDS011;36154;51.674;7.824;2022-07-23T01:33:45;2.15;;;0.90;;
48871;SDS011;36154;51.674;7.824;2022-07-23T01:36:11;1.75;;;1.08;;
48871;SDS011;36154;51.674;7.824;2022-07-23T01:38:36;1.05;;;1.00;;
48871;SDS011;36154;51.674;7.824;2022-07-23T01:41:01;1.05;;;1.05;;
48871;SDS011;36154;51.674;7.824;2022-07-23T01:43:27;1.20;;;1.08;;
48871;SDS011;36154;51.674;7.824;2022-07-23T01:45:52;1.20;;;1.10;;
48871;SDS011;36154;51.674;7.824;2022-07-23T01:48:18;1.00;;;1.00;;
48871;SDS011;36154;51.674;7.824;2022-07-23T01:50:43;1.42;;;1.33;;
48871;SDS011;36154;51.674;7.824;2022-07-23T01:53:08;1.33;;;1.23;;
48871;SDS011;36154;51.674;7.824;2022-07-23T01:55:34;1.40;;;1.30;;
48871;SDS011;36154;51.674;7.824;2022-07-23T01:57:59;1.65;;;0.95;;
48871;SDS011;36154;51.674;7.824;2022-07-23T02:00:24;1.13;;;1.13;;
48871;SDS011;36154;51.674;7.824;2022-07-23T02:02:49;1.48;;;1.15;;
48871;SDS011;36154;51.674;7.824;2022-07-23T02:05:15;1.15;;;1.05;;
48871;SDS011;36154;51.674;7.824;2022-07-23T02:07:40;1.38;;;1.00;;
48871;SDS011;36154;51.674;7.824;2022-07-23T02:10:06;1.60;;;1.10;;
48871;SDS011;36154;51.674;7.824;2022-07-23T02:12:31;1.23;;;1.00;;
48871;SDS011;36154;51.674;7.824;2022-07-23T02:14:57;1.10;;;1.00;;
48871;SDS011;36154;51.674;7.824;2022-07-23T02:17:22;1.20;;;1.10;;
48871;SDS011;36154;51.674;7.824;2022-07-23T02:19:47;1.00;;;1.00;;
48871;SDS011;36154;51.674;7.824;2022-07-23T02:22:12;1.30;;;1.00;;
48871;SDS011;36154;51.674;7.824;2022-07-23T02:24:38;1.05;;;0.98;;
48871;SDS011;36154;51.674;7.824;2022-07-23T02:27:03;1.20;;;1.07;;
48871;SDS011;36154;51.674;7.824;2022-07-23T02:29:28;2.40;;;1.00;;
48871;SDS011;36154;51.674;7.824;2022-07-23T02:31:53;1.25;;;1.00;;
48871;SDS011;36154;51.674;7.824;2022-07-23T02:34:19;1.83;;;1.23;;
48871;SDS011;36154;51.674;7.824;2022-07-23T02:36:44;0.90;;;0.90;;
48871;SDS011;36154;51.674;7.824;2022-07-23T02:39:09;1.23;;;1.10;;
48871;SDS011;36154;51.674;7.824;2022-07-23T02:41:35;1.23;;;1.13;;
48871;SDS011;36154;51.674;7.824;2022-07-23T02:44:00;1.40;;;1.30;;
48871;SDS011;36154;51.674;7.824;2022-07-23T02:46:26;1.70;;;1.13;;
48871;SDS011;36154;51.674;7.824;2022-07-23T02:48:51;1.33;;;1.30;;
48871;SDS011;36154;51.674;7.824;2022-07-23T02:51:16;2.03;;;1.13;;
48871;SDS011;36154;51.674;7.824;2022-07-23T02:53:41;1.35;;;1.25;;
48871;SDS011;36154;51.674;7.824;2022-07-23T02:56:07;2.38;;;1.00;;
48871;SDS011;36154;51.674;7.824;2022-07-23T02:58:32;1.38;;;1.27;;
48871;SDS011;36154;51.674;7.824;2022-07-23T03:00:58;2.60;;;1.23;;
48871;SDS011;36154;51.674;7.824;2022-07-23T03:03:23;1.00;;;1.00;;
48871;SDS011;36154;51.674;7.824;2022-07-23T03:05:48;1.40;;;1.30;;
48871;SDS011;36154;51.674;7.824;2022-07-23T03:08:14;1.60;;;1.30;;
48871;SDS011;36154;51.674;7.824;2022-07-23T03:10:39;1.67;;;1.58;;
48871;SDS011;36154;51.674;7.824;2022-07-23T03:13:04;3.28;;;1.58;;
48871;SDS011;36154;51.674;7.824;2022-07-23T03:15:29;1.25;;;1.23;;
48871;SDS011;36154;51.674;7.824;2022-07-23T03:17:55;1.80;;;1.65;;
48871;SDS011;36154;51.674;7.824;2022-07-23T03:20:20;1.60;;;1.50;;
48871;SDS011;36154;51.674;7.824;2022-07-23T03:22:45;1.70;;;1.55;;
48871;SDS011;36154;51.674;7.824;2022-07-23T03:25:11;1.58;;;1.48;;
48871;SDS011;36154;51.674;7.824;2022-07-23T03:27:36;1.50;;;1.40;;
48871;SDS011;36154;51.674;7.824;2022-07-23T03:30:02;1.50;;;1.40;;
48871;SDS011;36154;51.674;7.824;2022-07-23T03:32:28;2.13;;;1.75;;
48871;SDS011;36154;51.674;7.824;2022-07-23T03:34:54;1.58;;;1.48;;
48871;SDS011;36154;51.674;7.824;2022-07-23T03:37:19;3.88;;;1.60;;
48871;SDS011;36154;51.674;7.824;2022-07-23T03:39:45;1.70;;;1.60;;
48871;SDS011;36154;51.674;7.824;2022-07-23T03:42:10;1.65;;;1.55;;
48871;SDS011;36154;51.674;7.824;2022-07-23T03:44:36;1.40;;;1.30;;
48871;SDS011;36154;51.674;7.824;2022-07-23T03:47:02;1.60;;;1.50;;
48871;SDS011;36154;51.674;7.824;2022-07-23T03:49:28;1.40;;;1.30;;
48871;SDS011;36154;51.674;7.824;2022-07-23T03:51:53;1.40;;;1.30;;
48871;SDS011;36154;51.674;7.824;2022-07-23T03:54:19;2.58;;;1.50;;
48871;SDS011;36154;51.674;7.824;2022-07-23T03:56:44;1.65;;;1.55;;
48871;SDS011;36154;51.674;7.824;2022-07-23T03:59:10;1.52;;;1.42;;
48871;SDS011;36154;51.674;7.824;2022-07-23T04:01:35;2.10;;;1.45;;
48871;SDS011;36154;51.674;7.824;2022-07-23T04:04:01;2.90;;;1.48;;
48871;SDS011;36154;51.674;7.824;2022-07-23T04:06:26;1.25;;;1.15;;
48871;SDS011;36154;51.674;7.824;2022-07-23T04:08:52;1.65;;;1.55;;
48871;SDS011;36154;51.674;7.824;2022-07-23T04:11:17;1.73;;;1.63;;
48871;SDS011;36154;51.674;7.824;2022-07-23T04:13:43;2.58;;;1.40;;
48871;SDS011;36154;51.674;7.824;2022-07-23T04:16:08;1.60;;;1.50;;
48871;SDS011;36154;51.674;7.824;2022-07-23T04:18:33;2.35;;;1.40;;
48871;SDS011;36154;51.674;7.824;2022-07-23T04:20:59;1.92;;;1.65;;
48871;SDS011;36154;51.674;7.824;2022-07-23T04:23:24;1.80;;;1.48;;
48871;SDS011;36154;51.674;7.824;2022-07-23T04:25:49;1.45;;;1.35;;
48871;SDS011;36154;51.674;7.824;2022-07-23T04:28:14;2.97;;;1.50;;
48871;SDS011;36154;51.674;7.824;2022-07-23T04:30:40;1.60;;;1.48;;
48871;SDS011;36154;51.674;7.824;2022-07-23T04:33:05;1.50;;;1.40;;
48871;SDS011;36154;51.674;7.824;2022-07-23T04:35:32;1.30;;;1.27;;
48871;SDS011;36154;51.674;7.824;2022-07-23T04:37:58;1.95;;;1.50;;
48871;SDS011;36154;51.674;7.824;2022-07-23T04:40:24;1.45;;;1.30;;
48871;SDS011;36154;51.674;7.824;2022-07-23T04:42:49;1.65;;;1.55;;
48871;SDS011;36154;51.674;7.824;2022-07-23T04:45:15;1.60;;;1.50;;
48871;SDS011;36154;51.674;7.824;2022-07-23T04:47:40;1.95;;;1.45;;
48871;SDS011;36154;51.674;7.824;2022-07-23T04:50:05;1.58;;;1.40;;
48871;SDS011;36154;51.674;7.824;2022-07-23T04:52:31;2.53;;;1.48;;
48871;SDS011;36154;51.674;7.824;2022-07-23T04:54:56;4.00;;;1.77;;
48871;SDS011;36154;51.674;7.824;2022-07-23T04:57:21;2.15;;;1.33;;
48871;SDS011;36154;51.674;7.824;2022-07-23T04:59:47;1.30;;;1.20;;
48871;SDS011;36154;51.674;7.824;2022-07-23T05:02:12;1.43;;;1.33;;
48871;SDS011;36154;51.674;7.824;2022-07-23T05:04:37;4.00;;;1.25;;
48871;SDS011;36154;51.674;7.824;2022-07-23T05:07:03;5.35;;;2.00;;
48871;SDS011;36154;51.674;7.824;2022-07-23T05:09:29;1.58;;;1.45;;
48871;SDS011;36154;51.674;7.824;2022-07-23T05:11:54;1.40;;;1.30;;
48871;SDS011;36154;51.674;7.824;2022-07-23T05:14:19;1.42;;;1.33;;
48871;SDS011;36154;51.674;7.824;2022-07-23T05:16:44;2.07;;;1.37;;
48871;SDS011;36154;51.674;7.824;2022-07-23T05:19:10;1.23;;;1.20;;
48871;SDS011;36154;51.674;7.824;2022-07-23T05:21:35;2.40;;;1.20;;
48871;SDS011;36154;51.674;7.824;2022-07-23T05:24:00;1.67;;;1.10;;
48871;SDS011;36154;51.674;7.824;2022-07-23T05:26:26;1.55;;;1.30;;
48871;SDS011;36154;51.674;7.824;2022-07-23T05:28:51;1.70;;;1.60;;
48871;SDS011;36154;51.674;7.824;2022-07-23T05:31:16;1.60;;;1.50;;
48871;SDS011;36154;51.674;7.824;2022-07-23T05:33:42;2.03;;;1.30;;
48871;SDS011;36154;51.674;7.824;2022-07-23T05:36:07;1.40;;;1.30;;
48871;SDS011;36154;51.674;7.824;2022-07-23T05:38:32;1.20;;;1.20;;
48871;SDS011;36154;51.674;7.824;2022-07-23T05:40:58;1.60;;;1.50;;
48871;SDS011;36154;51.674;7.824;2022-07-23T05:43:24;1.60;;;1.50;;
48871;SDS011;36154;51.674;7.824;2022-07-23T05:45:49;3.05;;;1.35;;
48871;SDS011;36154;51.674;7.824;2022-07-23T05:48:15;1.73;;;1.63;;
48871;SDS011;36154;51.674;7.824;2022-07-23T05:50:40;2.65;;;1.40;;
48871;SDS011;36154;51.674;7.824;2022-07-23T05:53:05;1.50;;;1.23;;
48871;SDS011;36154;51.674;7.824;2022-07-23T05:55:30;1.50;;;1.40;;
48871;SDS011;36154;51.674;7.824;2022-07-23T05:57:56;2.47;;;1.15;;
48871;SDS011;36154;51.674;7.824;2022-07-23T06:00:22;1.40;;;1.30;;
48871;SDS011;36154;51.674;7.824;2022-07-23T06:02:48;2.58;;;1.35;;
48871;SDS011;36154;51.674;7.824;2022-07-23T06:05:13;1.60;;;1.50;;
48871;SDS011;36154;51.674;7.824;2022-07-23T06:07:39;2.47;;;1.50;;
48871;SDS011;36154;51.674;7.824;2022-07-23T06:10:04;2.25;;;1.20;;
48871;SDS011;36154;51.674;7.824;2022-07-23T06:12:30;2.03;;;1.20;;
48871;SDS011;36154;51.674;7.824;2022-07-23T06:14:56;3.53;;;1.45;;
48871;SDS011;36154;51.674;7.824;2022-07-23T06:17:21;1.00;;;1.00;;
48871;SDS011;36154;51.674;7.824;2022-07-23T06:19:47;1.33;;;1.23;;
48871;SDS011;36154;51.674;7.824;2022-07-23T06:22:12;1.52;;;1.17;;
48871;SDS011;36154;51.674;7.824;2022-07-23T06:24:37;1.10;;;1.10;;
48871;SDS011;36154;51.674;7.824;2022-07-23T06:27:03;2.35;;;1.50;;
48871;SDS011;36154;51.674;7.824;2022-07-23T06:29:28;2.55;;;1.23;;
48871;SDS011;36154;51.674;7.824;2022-07-23T06:31:54;1.50;;;1.40;;
48871;SDS011;36154;51.674;7.824;2022-07-23T06:34:19;2.50;;;1.83;;
48871;SDS011;36154;51.674;7.824;2022-07-23T06:36:44;1.60;;;1.38;;
48871;SDS011;36154;51.674;7.824;2022-07-23T06:39:10;1.73;;;1.33;;
48871;SDS011;36154;51.674;7.824;2022-07-23T06:41:35;1.90;;;1.33;;
48871;SDS011;36154;51.674;7.824;2022-07-23T06:44:00;1.90;;;1.40;;
48871;SDS011;36154;51.674;7.824;2022-07-23T06:46:26;1.63;;;1.45;;
48871;SDS011;36154;51.674;7.824;2022-07-23T06:48:51;1.70;;;1.35;;
48871;SDS011;36154;51.674;7.824;2022-07-23T06:51:16;1.30;;;1.20;;
48871;SDS011;36154;51.674;7.824;2022-07-23T06:53:41;1.45;;;1.33;;
48871;SDS011;36154;51.674;7.824;2022-07-23T06:56:07;1.50;;;1.40;;
48871;SDS011;36154;51.674;7.824;2022-07-23T06:58:32;2.22;;;1.45;;
48871;SDS011;36154;51.674;7.824;2022-07-23T07:00:57;1.40;;;1.30;;
48871;SDS011;36154;51.674;7.824;2022-07-23T07:03:23;1.50;;;1.30;;
48871;SDS011;36154;51.674;7.824;2022-07-23T07:05:48;4.88;;;1.52;;
48871;SDS011;36154;51.674;7.824;2022-07-23T07:08:14;1.70;;;1.60;;
48871;SDS011;36154;51.674;7.824;2022-07-23T07:10:40;1.75;;;1.45;;
48871;SDS011;36154;51.674;7.824;2022-07-23T07:13:05;3.45;;;2.08;;
48871;SDS011;36154;51.674;7.824;2022-07-23T07:15:31;1.88;;;1.50;;
48871;SDS011;36154;51.674;7.824;2022-07-23T07:17:56;1.65;;;1.55;;
48871;SDS011;36154;51.674;7.824;2022-07-23T07:20:21;1.73;;;1.63;;
48871;SDS011;36154;51.674;7.824;2022-07-23T07:22:49;3.55;;;1.80;;
48871;SDS011;36154;51.674;7.824;2022-07-23T07:25:14;3.70;;;2.20;;
48871;SDS011;36154;51.674;7.824;2022-07-23T07:27:40;2.00;;;1.90;;
48871;SDS011;36154;51.674;7.824;2022-07-23T07:30:06;3.85;;;1.90;;
48871;SDS011;36154;51.674;7.824;2022-07-23T07:32:32;2.10;;;1.70;;
48871;SDS011;36154;51.674;7.824;2022-07-23T07:34:58;2.70;;;2.00;;
48871;SDS011;36154;51.674;7.824;2022-07-23T07:37:23;3.95;;;1.77;;
48871;SDS011;36154;51.674;7.824;2022-07-23T07:39:48;1.60;;;1.50;;
48871;SDS011;36154;51.674;7.824;2022-07-23T07:42:14;2.83;;;1.67;;
48871;SDS011;36154;51.674;7.824;2022-07-23T07:44:39;4.07;;;1.70;;
48871;SDS011;36154;51.674;7.824;2022-07-23T07:47:04;2.35;;;1.90;;
48871;SDS011;36154;51.674;7.824;2022-07-23T07:49:30;2.13;;;1.92;;
48871;SDS011;36154;51.674;7.824;2022-07-23T07:51:55;2.00;;;1.90;;
48871;SDS011;36154;51.674;7.824;2022-07-23T07:54:20;2.35;;;2.00;;
48871;SDS011;36154;51.674;7.824;2022-07-23T07:56:46;3.53;;;1.98;;
48871;SDS011;36154;51.674;7.824;2022-07-23T07:59:12;3.28;;;2.00;;
48871;SDS011;36154;51.674;7.824;2022-07-23T08:01:39;3.42;;;2.03;;
48871;SDS011;36154;51.674;7.824;2022-07-23T08:04:05;4.35;;;1.77;;
48871;SDS011;36154;51.674;7.824;2022-07-23T08:06:30;3.72;;;1.80;;
48871;SDS011;36154;51.674;7.824;2022-07-23T08:08:56;2.25;;;1.63;;
48871;SDS011;36154;51.674;7.824;2022-07-23T08:11:21;3.15;;;1.70;;
48871;SDS011;36154;51.674;7.824;2022-07-23T08:13:46;8.82;;;1.58;;
48871;SDS011;36154;51.674;7.824;2022-07-23T08:16:12;16.63;;;2.30;;
48871;SDS011;36154;51.674;7.824;2022-07-23T08:18:37;17.73;;;3.00;;
48871;SDS011;36154;51.674;7.824;2022-07-23T08:21:02;63.05;;;5.22;;
48871;SDS011;36154;51.674;7.824;2022-07-23T08:23:30;47.28;;;4.85;;
48871;SDS011;36154;51.674;7.824;2022-07-23T08:25:56;44.60;;;5.80;;
48871;SDS011;36154;51.674;7.824;2022-07-23T08:28:21;36.05;;;4.85;;
48871;SDS011;36154;51.674;7.824;2022-07-23T08:30:47;23.35;;;4.80;;
48871;SDS011;36154;51.674;7.824;2022-07-23T08:33:13;21.02;;;4.50;;
48871;SDS011;36154;51.674;7.824;2022-07-23T08:35:44;16.73;;;3.15;;
48871;SDS011;36154;51.674;7.824;2022-07-23T08:38:15;14.13;;;3.17;;
48871;SDS011;36154;51.674;7.824;2022-07-23T08:40:43;14.98;;;3.13;;
48871;SDS011;36154;51.674;7.824;2022-07-23T08:43:13;13.57;;;2.95;;
48871;SDS011;36154;51.674;7.824;2022-07-23T08:45:44;11.57;;;2.80;;
48871;SDS011;36154;51.674;7.824;2022-07-23T08:48:13;10.23;;;2.50;;
48871;SDS011;36154;51.674;7.824;2022-07-23T08:50:47;9.15;;;2.53;;
48871;SDS011;36154;51.674;7.824;2022-07-23T08:53:14;5.60;;;2.05;;
48871;SDS011;36154;51.674;7.824;2022-07-23T08:55:48;6.18;;;2.47;;
48871;SDS011;36154;51.674;7.824;2022-07-23T09:00:40;3.85;;;1.60;;
48871;SDS011;36154;51.674;7.824;2022-07-23T09:03:06;6.18;;;1.90;;
48871;SDS011;36154;51.674;7.824;2022-07-23T09:05:32;4.38;;;2.00;;
48871;SDS011;36154;51.674;7.824;2022-07-23T09:08:13;5.05;;;1.83;;
48871;SDS011;36154;51.674;7.824;2022-07-23T09:15:52;4.50;;;1.58;;
48871;SDS011;36154;51.674;7.824;2022-07-23T09:18:19;3.08;;;1.63;;
48871;SDS011;36154;51.674;7.824;2022-07-23T09:23:49;2.28;;;1.30;;
48871;SDS011;36154;51.674;7.824;2022-07-23T09:26:18;2.17;;;1.15;;
48871;SDS011;36154;51.674;7.824;2022-07-23T09:28:53;1.92;;;1.00;;
48871;SDS011;36154;51.674;7.824;2022-07-23T09:31:21;0.77;;;0.77;;
48871;SDS011;36154;51.674;7.824;2022-07-23T09:33:47;2.38;;;0.90;;
48871;SDS011;36154;51.674;7.824;2022-07-23T09:36:12;2.47;;;0.88;;
48871;SDS011;36154;51.674;7.824;2022-07-23T09:38:48;1.52;;;0.93;;
48871;SDS011;36154;51.674;7.824;2022-07-23T09:41:14;1.17;;;0.80;;
48871;SDS011;36154;51.674;7.824;2022-07-23T09:43:40;2.25;;;1.00;;
48871;SDS011;36154;51.674;7.824;2022-07-23T09:46:18;0.80;;;0.80;;
48871;SDS011;36154;51.674;7.824;2022-07-23T09:48:44;1.00;;;0.80;;
48871;SDS011;36154;51.674;7.824;2022-07-23T09:51:10;1.15;;;0.68;;
48871;SDS011;36154;51.674;7.824;2022-07-23T09:53:35;1.55;;;0.90;;
48871;SDS011;36154;51.674;7.824;2022-07-23T09:56:00;2.42;;;0.60;;
48871;SDS011;36154;51.674;7.824;2022-07-23T09:58:27;1.10;;;0.73;;
48871;SDS011;36154;51.674;7.824;2022-07-23T10:00:55;0.95;;;0.60;;
48871;SDS011;36154;51.674;7.824;2022-07-23T10:03:22;1.80;;;0.70;;
48871;SDS011;36154;51.674;7.824;2022-07-23T10:05:48;0.98;;;0.90;;
48871;SDS011;36154;51.674;7.824;2022-07-23T10:08:16;0.77;;;0.75;;
48871;SDS011;36154;51.674;7.824;2022-07-23T10:10:43;0.68;;;0.68;;
48871;SDS011;36154;51.674;7.824;2022-07-23T10:13:11;1.73;;;0.70;;
48871;SDS011;36154;51.674;7.824;2022-07-23T10:15:55;1.42;;;0.77;;
48871;SDS011;36154;51.674;7.824;2022-07-23T10:18:20;0.98;;;0.40;;
48871;SDS011;36154;51.674;7.824;2022-07-23T10:20:47;1.83;;;0.65;;
48871;SDS011;36154;51.674;7.824;2022-07-23T10:26:22;0.80;;;0.80;;
48871;SDS011;36154;51.674;7.824;2022-07-23T10:29:10;0.52;;;0.52;;
48871;SDS011;36154;51.674;7.824;2022-07-23T10:31:59;0.40;;;0.40;;
48871;SDS011;36154;51.674;7.824;2022-07-23T10:40:09;0.93;;;0.60;;
48871;SDS011;36154;51.674;7.824;2022-07-23T10:42:35;1.65;;;0.50;;
48871;SDS011;36154;51.674;7.824;2022-07-23T10:45:01;1.25;;;0.70;;
48871;SDS011;36154;51.674;7.824;2022-07-23T10:47:51;1.33;;;0.70;;
48871;SDS011;36154;51.674;7.824;2022-07-23T10:50:17;1.35;;;0.60;;
48871;SDS011;36154;51.674;7.824;2022-07-23T10:53:07;2.78;;;0.47;;
48871;SDS011;36154;51.674;7.824;2022-07-23T10:58:03;2.07;;;0.73;;
48871;SDS011;36154;51.674;7.824;2022-07-23T11:00:30;2.67;;;0.75;;
48871;SDS011;36154;51.674;7.824;2022-07-23T11:02:57;1.90;;;0.88;;
48871;SDS011;36154;51.674;7.824;2022-07-23T11:05:41;1.20;;;0.63;;
48871;SDS011;36154;51.674;7.824;2022-07-23T11:31:59;2.13;;;0.55;;
48871;SDS011;36154;51.674;7.824;2022-07-23T11:37:02;0.45;;;0.32;;
48871;SDS011;36154;51.674;7.824;2022-07-23T11:39:29;1.25;;;0.50;;
48871;SDS011;36154;51.674;7.824;2022-07-23T11:41:56;0.93;;;0.50;;
48871;SDS011;36154;51.674;7.824;2022-07-23T11:44:25;0.70;;;0.30;;
48871;SDS011;36154;51.674;7.824;2022-07-23T11:49:25;0.22;;;0.22;;
48871;SDS011;36154;51.674;7.824;2022-07-23T11:52:04;0.30;;;0.30;;
48871;SDS011;36154;51.674;7.824;2022-07-23T11:54:35;0.52;;;0.40;;
48871;SDS011;36154;51.674;7.824;2022-07-23T11:57:02;0.40;;;0.40;;
48871;SDS011;36154;51.674;7.824;2022-07-23T11:59:32;0.70;;;0.60;;
48871;SDS011;36154;51.674;7.824;2022-07-23T12:01:58;0.52;;;0.40;;
48871;SDS011;36154;51.674;7.824;2022-07-23T12:04:36;3.33;;;0.50;;
48871;SDS011;36154;51.674;7.824;2022-07-23T12:07:23;0.65;;;0.60;;
48871;SDS011;36154;51.674;7.824;2022-07-23T12:09:53;1.15;;;0.68;;
48871;SDS011;36154;51.674;7.824;2022-07-23T12:12:19;2.25;;;0.70;;
48871;SDS011;36154;51.674;7.824;2022-07-23T12:14:48;4.93;;;0.50;;
48871;SDS011;36154;51.674;7.824;2022-07-23T12:17:14;0.75;;;0.57;;
48871;SDS011;36154;51.674;7.824;2022-07-23T12:19:40;1.27;;;0.45;;
48871;SDS011;36154;51.674;7.824;2022-07-23T12:22:06;0.77;;;0.50;;
48871;SDS011;36154;51.674;7.824;2022-07-23T12:24:51;0.82;;;0.45;;
48871;SDS011;36154;51.674;7.824;2022-07-23T12:27:29;1.13;;;0.70;;
48871;SDS011;36154;51.674;7.824;2022-07-23T12:29:54;0.30;;;0.30;;
48871;SDS011;36154;51.674;7.824;2022-07-23T12:32:24;0.50;;;0.50;;
48871;SDS011;36154;51.674;7.824;2022-07-23T12:35:06;1.42;;;0.60;;
48871;SDS011;36154;51.674;7.824;2022-07-23T12:37:33;2.15;;;0.52;;
48871;SDS011;36154;51.674;7.824;2022-07-23T12:45:14;0.65;;;0.50;;
48871;SDS011;36154;51.674;7.824;2022-07-23T12:50:51;1.40;;;0.40;;
48871;SDS011;36154;51.674;7.824;2022-07-23T12:56:05;2.95;;;0.57;;
48871;SDS011;36154;51.674;7.824;2022-07-23T12:58:44;0.68;;;0.47;;
48871;SDS011;36154;51.674;7.824;2022-07-23T13:01:10;0.82;;;0.50;;
48871;SDS011;36154;51.674;7.824;2022-07-23T13:04:04;1.85;;;0.50;;
48871;SDS011;36154;51.674;7.824;2022-07-23T13:06:32;0.55;;;0.35;;
48871;SDS011;36154;51.674;7.824;2022-07-23T13:09:13;6.00;;;0.80;;
48871;SDS011;36154;51.674;7.824;2022-07-23T13:11:43;0.52;;;0.50;;
48871;SDS011;36154;51.674;7.824;2022-07-23T13:14:10;0.90;;;0.40;;
48871;SDS011;36154;51.674;7.824;2022-07-23T13:16:37;0.68;;;0.50;;
48871;SDS011;36154;51.674;7.824;2022-07-23T13:19:03;4.40;;;0.50;;
48871;SDS011;36154;51.674;7.824;2022-07-23T13:21:29;0.40;;;0.40;;
48871;SDS011;36154;51.674;7.824;2022-07-23T13:23:55;2.20;;;0.52;;
48871;SDS011;36154;51.674;7.824;2022-07-23T13:26:21;0.50;;;0.30;;
48871;SDS011;36154;51.674;7.824;2022-07-23T13:28:46;1.67;;;0.60;;
48871;SDS011;36154;51.674;7.824;2022-07-23T13:31:12;0.65;;;0.43;;
48871;SDS011;36154;51.674;7.824;2022-07-23T13:33:38;2.92;;;0.40;;
48871;SDS011;36154;51.674;7.824;2022-07-23T13:36:03;1.33;;;0.50;;
48871;SDS011;36154;51.674;7.824;2022-07-23T13:38:29;2.22;;;0.40;;
48871;SDS011;36154;51.674;7.824;2022-07-23T13:40:55;0.60;;;0.40;;
48871;SDS011;36154;51.674;7.824;2022-07-23T13:43:21;0.73;;;0.50;;
48871;SDS011;36154;51.674;7.824;2022-07-23T13:45:49;1.85;;;0.40;;
48871;SDS011;36154;51.674;7.824;2022-07-23T13:48:15;1.23;;;0.60;;
48871;SDS011;36154;51.674;7.824;2022-07-23T13:50:41;2.97;;;0.60;;
48871;SDS011;36154;51.674;7.824;2022-07-23T13:53:11;0.55;;;0.32;;
48871;SDS011;36154;51.674;7.824;2022-07-23T13:55:39;0.50;;;0.50;;
48871;SDS011;36154;51.674;7.824;2022-07-23T13:58:05;0.88;;;0.60;;
48871;SDS011;36154;51.674;7.824;2022-07-23T14:00:31;0.82;;;0.40;;
48871;SDS011;36154;51.674;7.824;2022-07-23T14:02:58;0.50;;;0.47;;
48871;SDS011;36154;51.674;7.824;2022-07-23T14:05:24;0.63;;;0.40;;
48871;SDS011;36154;51.674;7.824;2022-07-23T14:07:50;1.98;;;0.40;;
48871;SDS011;36154;51.674;7.824;2022-07-23T14:10:17;0.50;;;0.50;;
48871;SDS011;36154;51.674;7.824;2022-07-23T14:12:43;0.85;;;0.50;;
48871;SDS011;36154;51.674;7.824;2022-07-23T14:15:09;0.52;;;0.40;;
48871;SDS011;36154;51.674;7.824;2022-07-23T14:17:38;0.30;;;0.30;;
48871;SDS011;36154;51.674;7.824;2022-07-23T14:20:05;0.45;;;0.45;;
48871;SDS011;36154;51.674;7.824;2022-07-23T14:22:31;1.38;;;0.30;;
48871;SDS011;36154;51.674;7.824;2022-07-23T14:24:57;0.28;;;0.28;;
48871;SDS011;36154;51.674;7.824;2022-07-23T14:27:23;1.05;;;0.30;;
48871;SDS011;36154;51.674;7.824;2022-07-23T14:29:49;0.55;;;0.40;;
48871;SDS011;36154;51.674;7.824;2022-07-23T14:32:15;0.50;;;0.50;;
48871;SDS011;36154;51.674;7.824;2022-07-23T14:34:41;0.30;;;0.30;;
48871;SDS011;36154;51.674;7.824;2022-07-23T14:37:06;0.38;;;0.38;;
48871;SDS011;36154;51.674;7.824;2022-07-23T14:39:32;0.30;;;0.30;;
48871;SDS011;36154;51.674;7.824;2022-07-23T14:41:57;0.40;;;0.30;;
48871;SDS011;36154;51.674;7.824;2022-07-23T14:44:23;0.22;;;0.20;;
48871;SDS011;36154;51.674;7.824;2022-07-23T14:46:48;0.50;;;0.30;;
48871;SDS011;36154;51.674;7.824;2022-07-23T14:49:13;0.50;;;0.25;;
48871;SDS011;36154;51.674;7.824;2022-07-23T14:51:39;0.30;;;0.30;;
48871;SDS011;36154;51.674;7.824;2022-07-23T14:54:07;0.85;;;0.30;;
48871;SDS011;36154;51.674;7.824;2022-07-23T14:56:32;0.32;;;0.30;;
48871;SDS011;36154;51.674;7.824;2022-07-23T14:58:58;0.30;;;0.22;;
48871;SDS011;36154;51.674;7.824;2022-07-23T15:01:23;1.15;;;0.30;;
48871;SDS011;36154;51.674;7.824;2022-07-23T15:03:49;0.22;;;0.22;;
48871;SDS011;36154;51.674;7.824;2022-07-23T15:06:15;0.30;;;0.30;;
48871;SDS011;36154;51.674;7.824;2022-07-23T15:08:41;0.60;;;0.40;;
48871;SDS011;36154;51.674;7.824;2022-07-23T15:11:07;1.85;;;0.40;;
48871;SDS011;36154;51.674;7.824;2022-07-23T15:13:34;0.30;;;0.30;;
48871;SDS011;36154;51.674;7.824;2022-07-23T15:16:00;0.30;;;0.30;;
48871;SDS011;36154;51.674;7.824;2022-07-23T15:18:25;0.50;;;0.50;;
48871;SDS011;36154;51.674;7.824;2022-07-23T15:20:51;1.50;;;0.32;;
48871;SDS011;36154;51.674;7.824;2022-07-23T15:23:16;0.30;;;0.30;;
48871;SDS011;36154;51.674;7.824;2022-07-23T15:25:41;0.40;;;0.40;;
48871;SDS011;36154;51.674;7.824;2022-07-23T15:28:06;0.40;;;0.30;;
48871;SDS011;36154;51.674;7.824;2022-07-23T15:30:32;0.43;;;0.35;;
48871;SDS011;36154;51.674;7.824;2022-07-23T15:32:57;0.38;;;0.38;;
48871;SDS011;36154;51.674;7.824;2022-07-23T15:35:23;0.38;;;0.38;;
48871;SDS011;36154;51.674;7.824;2022-07-23T15:37:48;1.48;;;0.45;;
48871;SDS011;36154;51.674;7.824;2022-07-23T15:40:13;0.32;;;0.32;;
48871;SDS011;36154;51.674;7.824;2022-07-23T15:42:39;1.50;;;0.30;;
48871;SDS011;36154;51.674;7.824;2022-07-23T15:45:04;0.60;;;0.60;;
48871;SDS011;36154;51.674;7.824;2022-07-23T15:47:30;0.40;;;0.40;;